Mehtap Bayraktar — TCPB — position and weather

sailwx.info

Track history (hours):
 
Tides and Currents Weather Stations Pressure Air Temp Water Temp Dewpoint Dewpoint Depression Visibility Wind Speed Wind Dir Waves Ship Positions

Mehtap Bayraktar

Last reported at 2014-Sep-20 21:33 UTC. Time now 2014-Sep-20 22:04 UTC.
Position N 38°25' E 004°20'.

Length 114 m; draft 5.4 m.

Type: Cargo ship. MMSI: 271000578.

Date/timePositionNaut miles runAvg speedWind from/ knotsBaromVisibWave heightAir tempDewpointWater temp
2014-Sep-20 21:33N 38°25' E 004°20'1212.3
2014-Sep-20 20:33N 38°14' E 004°27'1212.3
2014-Sep-20 19:33N 38°03' E 004°33'  
2014-Sep-15 22:32N 36°59' E 004°21'1211.9
2014-Sep-15 21:34N 36°59' E 004°06'1211.6
2014-Sep-15 20:33N 37°00' E 003°52'1110.3
2014-Sep-15 19:29N 36°57' E 003°38'1311.6
2014-Sep-15 18:21N 36°55' E 003°22'911.7
2014-Sep-15 17:33N 36°52' E 003°11'  
2014-Sep-13 11:33N 36°46' E 003°05'2 1.5
2014-Sep-13 10:24N 36°46' E 003°07'19 9.0
2014-Sep-13 08:14N 37°05' E 003°00'1113.9
2014-Sep-13 07:26N 37°16' E 002°56'1314.3
2014-Sep-13 06:33N 37°27' E 002°51'1414.0
2014-Sep-13 05:33N 37°41' E 002°45'1313.3
2014-Sep-13 04:33N 37°53' E 002°39'1413.1
2014-Sep-13 03:29N 38°06' E 002°33'3013.6
2014-Sep-13 01:14N 38°35' E 002°21'913.8
2014-Sep-13 00:33N 38°44' E 002°17'1413.8
2014-Sep-12 23:33N 38°57' E 002°12'1313.4
2014-Sep-12 22:34N 39°10' E 002°06'1313.1
2014-Sep-12 21:33N 39°23' E 002°01'1312.7
2014-Sep-12 20:33N 39°35' E 001°56'1312.8
2014-Sep-12 19:34N 39°47' E 001°57'1312.5
2014-Sep-12 18:34N 39°60' E 001°59'1312.6
2014-Sep-12 17:32N 40°13' E 002°00'1313.3
2014-Sep-12 16:31N 40°26' E 002°03'1313.1
2014-Sep-12 15:33N 40°39' E 002°04'1413.8
2014-Sep-12 14:33N 40°52' E 002°06'1513.4
2014-Sep-12 13:27N 41°07' E 002°08'1112.5
2014-Sep-12 12:33N 41°18' E 002°10'3 2.6
2014-Sep-12 11:30N 41°21' E 002°10'0 0.0
2014-Sep-12 10:30N 41°21' E 002°10'0 0.0
2014-Sep-12 09:18N 41°21' E 002°10'0 0.0
2014-Sep-12 08:30N 41°21' E 002°10'0 0.0
2014-Sep-12 07:18N 41°21' E 002°10'0 0.0
2014-Sep-12 05:10N 41°21' E 002°10'2 4.0
2014-Sep-12 04:33N 41°18' E 002°10'4 4.2
2014-Sep-12 03:33N 41°14' E 002°11'1010.0
2014-Sep-12 02:34N 41°04' E 002°10'8 8.0
2014-Sep-12 01:34N 40°57' E 002°08'1111.0
2014-Sep-12 00:33N 40°45' E 002°06'1212.4
2014-Sep-11 23:33N 40°33' E 002°04'1312.5
2014-Sep-11 22:33N 40°21' E 002°02'1211.9
2014-Sep-11 21:33N 40°09' E 002°01'1111.2
2014-Sep-11 20:33N 39°58' E 001°59'1211.6
2014-Sep-11 19:33N 39°46' E 001°57'1211.9
2014-Sep-11 18:33N 39°35' E 001°56'1312.8
2014-Sep-11 17:33N 39°22' E 002°00'1312.8
2014-Sep-11 16:33N 39°10' E 002°05'1312.5
2014-Sep-11 15:33N 38°58' E 002°10'1312.6
2014-Sep-11 14:33N 38°46' E 002°16'1212.1
2014-Sep-11 13:33N 38°35' E 002°21'2512.3
2014-Sep-11 11:29N 38°11' E 002°32'4012.6
2014-Sep-11 08:20N 37°34' E 002°49'1012.3
2014-Sep-11 07:32N 37°24' E 002°53'1212.5
2014-Sep-11 06:33N 37°13' E 002°59'1212.5
2014-Sep-11 05:33N 37°01' E 003°04'1512.4
2014-Sep-11 04:22N 36°46' E 003°06'2 0.5
2014-Sep-11 01:05N 36°46' E 003°04'0 0.0
2014-Sep-10 22:32N 36°46' E 003°04'  
Track history (hours):
 
Tides and Currents Weather Stations Pressure Air Temp Water Temp Dewpoint Dewpoint Depression Visibility Wind Speed Wind Dir Waves Ship Positions

Mehtap Bayraktar

Last reported at 2014-Sep-20 21:33 UTC. Time now 2014-Sep-20 22:04 UTC.
Position N 38°25' E 004°20'.

Length 114 m; draft 5.4 m.

Type: Cargo ship. MMSI: 271000578.

Date/timePositionNaut miles runAvg speedWind from/ knotsBaromVisibWave heightAir tempDewpointWater temp
2014-Sep-20 21:33N 38°25' E 004°20'1212.3
2014-Sep-20 20:33N 38°14' E 004°27'1212.3
2014-Sep-20 19:33N 38°03' E 004°33'  
2014-Sep-15 22:32N 36°59' E 004°21'1211.9
2014-Sep-15 21:34N 36°59' E 004°06'1211.6
2014-Sep-15 20:33N 37°00' E 003°52'1110.3
2014-Sep-15 19:29N 36°57' E 003°38'1311.6
2014-Sep-15 18:21N 36°55' E 003°22'911.7
2014-Sep-15 17:33N 36°52' E 003°11'  
2014-Sep-13 11:33N 36°46' E 003°05'2 1.5
2014-Sep-13 10:24N 36°46' E 003°07'19 9.0
2014-Sep-13 08:14N 37°05' E 003°00'1113.9
2014-Sep-13 07:26N 37°16' E 002°56'1314.3
2014-Sep-13 06:33N 37°27' E 002°51'1414.0
2014-Sep-13 05:33N 37°41' E 002°45'1313.3
2014-Sep-13 04:33N 37°53' E 002°39'1413.1
2014-Sep-13 03:29N 38°06' E 002°33'3013.6
2014-Sep-13 01:14N 38°35' E 002°21'913.8
2014-Sep-13 00:33N 38°44' E 002°17'1413.8
2014-Sep-12 23:33N 38°57' E 002°12'1313.4
2014-Sep-12 22:34N 39°10' E 002°06'1313.1
2014-Sep-12 21:33N 39°23' E 002°01'1312.7
2014-Sep-12 20:33N 39°35' E 001°56'1312.8
2014-Sep-12 19:34N 39°47' E 001°57'1312.5
2014-Sep-12 18:34N 39°60' E 001°59'1312.6
2014-Sep-12 17:32N 40°13' E 002°00'1313.3
2014-Sep-12 16:31N 40°26' E 002°03'1313.1
2014-Sep-12 15:33N 40°39' E 002°04'1413.8
2014-Sep-12 14:33N 40°52' E 002°06'1513.4
2014-Sep-12 13:27N 41°07' E 002°08'1112.5
2014-Sep-12 12:33N 41°18' E 002°10'3 2.6
2014-Sep-12 11:30N 41°21' E 002°10'0 0.0
2014-Sep-12 10:30N 41°21' E 002°10'0 0.0
2014-Sep-12 09:18N 41°21' E 002°10'0 0.0
2014-Sep-12 08:30N 41°21' E 002°10'0 0.0
2014-Sep-12 07:18N 41°21' E 002°10'0 0.0
2014-Sep-12 05:10N 41°21' E 002°10'2 4.0
2014-Sep-12 04:33N 41°18' E 002°10'4 4.2
2014-Sep-12 03:33N 41°14' E 002°11'1010.0
2014-Sep-12 02:34N 41°04' E 002°10'8 8.0
2014-Sep-12 01:34N 40°57' E 002°08'1111.0
2014-Sep-12 00:33N 40°45' E 002°06'1212.4
2014-Sep-11 23:33N 40°33' E 002°04'1312.5
2014-Sep-11 22:33N 40°21' E 002°02'1211.9
2014-Sep-11 21:33N 40°09' E 002°01'1111.2
2014-Sep-11 20:33N 39°58' E 001°59'1211.6
2014-Sep-11 19:33N 39°46' E 001°57'1211.9
2014-Sep-11 18:33N 39°35' E 001°56'1312.8
2014-Sep-11 17:33N 39°22' E 002°00'1312.8
2014-Sep-11 16:33N 39°10' E 002°05'1312.5
2014-Sep-11 15:33N 38°58' E 002°10'1312.6
2014-Sep-11 14:33N 38°46' E 002°16'1212.1
2014-Sep-11 13:33N 38°35' E 002°21'2512.3
2014-Sep-11 11:29N 38°11' E 002°32'4012.6
2014-Sep-11 08:20N 37°34' E 002°49'1012.3
2014-Sep-11 07:32N 37°24' E 002°53'1212.5
2014-Sep-11 06:33N 37°13' E 002°59'1212.5
2014-Sep-11 05:33N 37°01' E 003°04'1512.4
2014-Sep-11 04:22N 36°46' E 003°06'2 0.5
2014-Sep-11 01:05N 36°46' E 003°04'0 0.0
2014-Sep-10 22:32N 36°46' E 003°04'  

Dump ship's entire track history